createdAt,value
2023-05-17T00:01:09.226Z,9.50
2023-05-17T00:03:37.018Z,9.53
2023-05-17T00:06:05.097Z,9.63
2023-05-17T00:08:34.365Z,9.68
2023-05-17T00:11:02.229Z,9.69
2023-05-17T00:13:29.970Z,9.67
2023-05-17T00:15:57.795Z,9.49
2023-05-17T00:18:26.061Z,9.65
2023-05-17T00:20:54.014Z,9.56
2023-05-17T00:23:22.022Z,9.69
2023-05-17T00:25:52.943Z,9.75
2023-05-17T00:28:20.972Z,9.75
2023-05-17T00:30:48.740Z,9.58
2023-05-17T00:33:16.467Z,9.63
2023-05-17T00:35:44.251Z,9.67
2023-05-17T00:38:12.241Z,9.73
2023-05-17T00:40:40.000Z,9.70
2023-05-17T00:43:10.766Z,9.49
2023-05-17T00:45:38.884Z,9.64
2023-05-17T00:48:07.114Z,9.67
2023-05-17T00:50:35.799Z,9.62
2023-05-17T00:53:03.571Z,9.66
2023-05-17T00:55:31.926Z,9.53
2023-05-17T00:57:59.998Z,9.54
2023-05-17T01:00:29.746Z,9.60
2023-05-17T01:02:57.608Z,9.56
2023-05-17T01:05:28.723Z,9.52
2023-05-17T01:07:59.125Z,9.08
2023-05-17T01:10:32.391Z,9.42
2023-05-17T01:13:07.236Z,9.45
2023-05-17T01:15:42.436Z,9.44
2023-05-17T01:18:17.875Z,9.31
2023-05-17T01:20:47.326Z,9.39
2023-05-17T01:23:39.132Z,9.38
2023-05-17T01:26:12.235Z,9.45
2023-05-17T01:28:42.931Z,9.36
2023-05-17T01:31:12.589Z,9.26
2023-05-17T01:33:41.105Z,9.38
2023-05-17T01:36:09.901Z,9.42
2023-05-17T01:38:37.725Z,9.50
2023-05-17T01:41:10.727Z,9.44
2023-05-17T01:43:47.867Z,9.51
2023-05-17T01:46:26.014Z,9.44
2023-05-17T01:49:02.129Z,9.46
2023-05-17T01:51:33.410Z,9.52
2023-05-17T01:54:09.574Z,9.56
2023-05-17T01:56:42.273Z,9.47
2023-05-17T01:59:15.168Z,9.47
2023-05-17T02:01:43.746Z,9.51
2023-05-17T02:04:11.904Z,9.52
2023-05-17T02:06:39.741Z,9.43
2023-05-17T02:09:07.614Z,9.39
2023-05-17T02:11:36.987Z,9.39
2023-05-17T02:14:04.831Z,9.41
2023-05-17T02:16:34.035Z,9.38
2023-05-17T02:19:01.997Z,9.44
2023-05-17T02:21:29.782Z,9.37
2023-05-17T02:23:57.659Z,9.46
2023-05-17T02:26:25.551Z,9.40
2023-05-17T02:28:53.334Z,9.34
2023-05-17T02:31:21.289Z,9.35
2023-05-17T02:33:50.497Z,9.39
2023-05-17T02:36:18.367Z,9.39
2023-05-17T02:38:46.229Z,9.42
2023-05-17T02:41:14.056Z,9.50
2023-05-17T02:43:41.922Z,9.29
2023-05-17T02:46:09.667Z,9.44
2023-05-17T02:48:37.734Z,9.32
2023-05-17T02:51:07.161Z,9.43
2023-05-17T02:53:34.997Z,9.38
2023-05-17T02:56:02.793Z,9.39
2023-05-17T02:58:30.561Z,9.43
2023-05-17T03:00:58.796Z,9.46
2023-05-17T03:03:26.766Z,9.32
2023-05-17T03:05:54.666Z,9.23
2023-05-17T03:08:23.776Z,9.24
2023-05-17T03:10:51.498Z,9.30
2023-05-17T03:13:20.024Z,9.37
2023-05-17T03:15:47.822Z,9.28
2023-05-17T03:18:16.034Z,9.22
2023-05-17T03:20:44.103Z,9.31
2023-05-17T03:23:11.928Z,9.28
2023-05-17T03:25:41.125Z,9.28
2023-05-17T03:28:08.992Z,9.32
2023-05-17T03:30:37.379Z,9.30
2023-05-17T03:33:05.470Z,9.34
2023-05-17T03:35:33.255Z,9.23
2023-05-17T03:38:03.807Z,9.29
2023-05-17T03:40:32.065Z,9.24
2023-05-17T03:43:01.440Z,9.28
2023-05-17T03:45:29.431Z,9.24
2023-05-17T03:47:57.224Z,9.25
2023-05-17T03:50:25.353Z,9.33
2023-05-17T03:52:53.132Z,9.33
2023-05-17T03:55:21.012Z,9.25
2023-05-17T03:57:48.801Z,9.27
2023-05-17T04:00:21.798Z,9.25
2023-05-17T04:02:49.783Z,9.13
2023-05-17T04:05:17.781Z,9.11
2023-05-17T04:07:45.734Z,9.11
2023-05-17T04:10:13.529Z,9.08
2023-05-17T04:12:41.626Z,9.10
2023-05-17T04:15:10.265Z,9.21
2023-05-17T04:17:39.432Z,9.24
2023-05-17T04:20:08.237Z,9.31
2023-05-17T04:22:36.093Z,9.26
2023-05-17T04:25:03.889Z,9.35
2023-05-17T04:27:32.246Z,9.37
2023-05-17T04:30:00.025Z,9.21
2023-05-17T04:32:28.152Z,9.31
2023-05-17T04:34:57.421Z,9.30
2023-05-17T04:37:25.206Z,9.41
2023-05-17T04:39:53.813Z,9.51
2023-05-17T04:42:21.596Z,9.49
2023-05-17T04:44:49.377Z,9.40
2023-05-17T04:47:17.405Z,9.59
2023-05-17T04:49:45.179Z,9.53
2023-05-17T04:52:14.624Z,9.43
2023-05-17T04:54:42.456Z,9.73
2023-05-17T04:57:10.150Z,9.80
2023-05-17T04:59:38.235Z,9.51
2023-05-17T05:02:06.780Z,9.83
2023-05-17T05:04:34.626Z,9.87
2023-05-17T05:07:02.445Z,9.94
2023-05-17T05:09:31.854Z,9.82
2023-05-17T05:11:59.612Z,9.67
2023-05-17T05:14:27.325Z,9.73
2023-05-17T05:16:55.869Z,9.75
2023-05-17T05:19:23.733Z,9.85
2023-05-17T05:21:51.595Z,9.71
2023-05-17T05:24:21.493Z,9.81
2023-05-17T05:26:50.723Z,9.57
2023-05-17T05:29:19.216Z,9.32
2023-05-17T05:31:47.428Z,9.47
2023-05-17T05:34:15.406Z,9.36
2023-05-17T05:36:43.224Z,9.54
2023-05-17T05:39:11.002Z,9.58
2023-05-17T05:41:38.768Z,9.74
2023-05-17T05:44:07.937Z,9.66
2023-05-17T05:46:35.787Z,9.74
2023-05-17T05:49:03.789Z,9.85
2023-05-17T05:51:31.756Z,9.95
2023-05-17T05:54:00.060Z,10.15
2023-05-17T05:56:28.129Z,9.95
2023-05-17T05:58:56.470Z,9.96
2023-05-17T06:01:26.641Z,9.96
2023-05-17T06:03:54.534Z,9.92
2023-05-17T06:06:22.459Z,10.20
2023-05-17T06:08:50.264Z,9.99
2023-05-17T06:11:20.510Z,10.20
2023-05-17T06:13:48.277Z,10.18
2023-05-17T06:16:16.086Z,10.23
2023-05-17T06:18:46.165Z,10.26
2023-05-17T06:21:16.261Z,10.16
2023-05-17T06:23:44.548Z,10.21
2023-05-17T06:26:12.337Z,10.35
2023-05-17T06:28:40.161Z,10.12
2023-05-17T06:31:07.965Z,10.05
2023-05-17T06:33:36.190Z,10.27
2023-05-17T06:36:06.069Z,10.34
2023-05-17T06:38:33.880Z,10.26
2023-05-17T06:41:01.773Z,10.16
2023-05-17T06:43:29.518Z,10.22
2023-05-17T06:45:57.221Z,10.23
2023-05-17T06:48:25.458Z,10.42
2023-05-17T06:50:53.403Z,10.27
2023-05-17T06:53:22.856Z,10.07
2023-05-17T06:55:50.747Z,10.30
2023-05-17T06:58:18.477Z,10.49
2023-05-17T07:00:46.489Z,10.49
2023-05-17T07:03:14.466Z,10.38
2023-05-17T07:05:42.520Z,10.29
2023-05-17T07:08:10.381Z,10.35
2023-05-17T07:10:39.600Z,10.46
2023-05-17T07:13:07.440Z,10.60
2023-05-17T07:15:35.249Z,10.69
2023-05-17T07:18:03.324Z,10.67
2023-05-17T07:20:31.950Z,10.64
2023-05-17T07:22:59.752Z,10.74
2023-05-17T07:25:28.013Z,10.95
2023-05-17T07:27:57.451Z,10.98
2023-05-17T07:30:25.443Z,11.28
2023-05-17T07:32:53.317Z,11.24
2023-05-17T07:35:26.211Z,11.31
2023-05-17T07:37:54.040Z,11.04
2023-05-17T07:40:22.429Z,11.15
2023-05-17T07:42:50.170Z,11.45
2023-05-17T07:45:20.082Z,11.59
2023-05-17T07:47:48.463Z,11.74
2023-05-17T07:50:16.298Z,11.67
2023-05-17T07:52:44.148Z,11.69
2023-05-17T07:55:12.043Z,11.43
2023-05-17T07:57:40.190Z,12.01
2023-05-17T08:00:12.599Z,12.27
2023-05-17T08:02:42.191Z,11.55
2023-05-17T08:05:10.926Z,11.60
2023-05-17T08:07:38.658Z,12.31
2023-05-17T08:10:07.483Z,12.14
2023-05-17T08:12:35.472Z,11.67
2023-05-17T08:15:03.411Z,11.83
2023-05-17T08:17:31.213Z,12.22
2023-05-17T08:20:00.600Z,12.48
2023-05-17T08:22:29.000Z,12.01
2023-05-17T08:24:57.199Z,12.09
2023-05-17T08:27:26.129Z,12.10
2023-05-17T08:29:54.949Z,12.09
2023-05-17T08:32:23.572Z,12.33
2023-05-17T08:34:51.801Z,12.01
2023-05-17T08:37:21.005Z,12.26
2023-05-17T08:39:50.267Z,12.23
2023-05-17T08:42:22.730Z,12.05
2023-05-17T08:44:50.734Z,12.34
2023-05-17T08:47:26.099Z,12.26
2023-05-17T08:49:57.666Z,12.62
2023-05-17T08:52:30.243Z,12.51
2023-05-17T08:54:58.305Z,12.31
2023-05-17T08:57:29.358Z,12.24
2023-05-17T08:59:57.452Z,12.14
2023-05-17T09:02:25.655Z,12.16
2023-05-17T09:04:55.804Z,12.64
2023-05-17T09:07:24.208Z,12.54
2023-05-17T09:09:54.299Z,12.39
2023-05-17T09:12:25.413Z,11.93
2023-05-17T09:14:53.598Z,12.38
2023-05-17T09:17:22.824Z,12.63
2023-05-17T09:19:51.898Z,12.25
2023-05-17T09:22:20.669Z,12.07
2023-05-17T09:24:48.624Z,12.42
2023-05-17T09:27:19.765Z,12.66
2023-05-17T09:29:48.367Z,12.22
2023-05-17T09:32:18.039Z,12.32
2023-05-17T09:34:47.149Z,12.77
2023-05-17T09:37:16.709Z,12.29
2023-05-17T09:39:46.909Z,12.27
2023-05-17T09:42:16.813Z,12.51
2023-05-17T09:44:53.209Z,12.70
2023-05-17T09:47:25.490Z,12.78
2023-05-17T09:49:53.907Z,12.86
2023-05-17T09:52:22.750Z,13.13
2023-05-17T09:54:54.901Z,12.71
2023-05-17T09:57:22.748Z,12.91
2023-05-17T09:59:53.085Z,13.65
2023-05-17T10:02:29.208Z,14.22
2023-05-17T10:04:58.562Z,14.61
2023-05-17T10:07:28.200Z,14.80
2023-05-17T10:09:57.489Z,14.75
2023-05-17T10:12:29.594Z,14.61
2023-05-17T10:15:00.050Z,14.19
2023-05-17T10:17:30.436Z,13.65
2023-05-17T10:19:59.278Z,14.15
2023-05-17T10:22:29.073Z,14.27
2023-05-17T10:24:58.927Z,14.55
2023-05-17T10:27:27.955Z,14.42
2023-05-17T10:29:56.527Z,14.35
2023-05-17T10:32:28.386Z,14.00
2023-05-17T10:35:10.422Z,13.76
2023-05-17T10:37:41.196Z,14.22
2023-05-17T10:40:13.517Z,14.38
2023-05-17T10:42:43.711Z,14.14
2023-05-17T10:45:13.221Z,13.35
2023-05-17T10:47:46.158Z,13.34
2023-05-17T10:50:15.108Z,13.88
2023-05-17T10:52:48.353Z,14.15
2023-05-17T10:55:20.051Z,14.00
2023-05-17T10:58:10.453Z,13.97
2023-05-17T11:00:42.296Z,14.33
2023-05-17T11:03:16.779Z,14.53
2023-05-17T11:05:47.799Z,14.44
2023-05-17T11:08:17.794Z,13.56
2023-05-17T11:11:11.386Z,14.12
2023-05-17T11:13:47.411Z,14.22
2023-05-17T11:16:18.435Z,14.61
2023-05-17T11:18:52.381Z,14.11
2023-05-17T11:21:21.812Z,14.94
2023-05-17T11:23:56.189Z,15.81
2023-05-17T11:26:29.752Z,14.96
2023-05-17T11:29:03.435Z,14.57
2023-05-17T11:31:33.552Z,14.60
2023-05-17T11:34:04.202Z,14.47
2023-05-17T11:36:32.886Z,14.08
2023-05-17T11:39:12.005Z,14.14
2023-05-17T11:41:41.987Z,13.96
2023-05-17T11:44:10.143Z,13.99
2023-05-17T11:46:39.358Z,13.99
2023-05-17T11:49:10.219Z,14.14
2023-05-17T11:51:42.265Z,14.18
2023-05-17T11:54:11.971Z,13.97
2023-05-17T11:56:43.367Z,14.03
2023-05-17T11:59:12.597Z,13.60
2023-05-17T12:01:44.389Z,13.59
2023-05-17T12:04:14.592Z,13.51
2023-05-17T12:06:42.749Z,13.43
2023-05-17T12:09:13.425Z,13.90
2023-05-17T12:11:43.405Z,13.90
2023-05-17T12:14:11.308Z,14.72
2023-05-17T12:16:43.028Z,14.87
2023-05-17T12:19:20.275Z,15.10
2023-05-17T12:21:48.443Z,15.23
2023-05-17T12:24:16.577Z,14.96
2023-05-17T12:26:46.161Z,14.51
2023-05-17T12:29:14.892Z,14.40
2023-05-17T12:31:44.949Z,14.25
2023-05-17T12:34:14.207Z,14.50
2023-05-17T12:36:44.308Z,14.60
2023-05-17T12:39:13.950Z,15.09
2023-05-17T12:41:42.538Z,14.84
2023-05-17T12:44:15.438Z,15.06
2023-05-17T12:46:44.594Z,14.73
2023-05-17T12:49:13.015Z,14.69
2023-05-17T12:51:44.144Z,14.57
2023-05-17T12:54:12.808Z,14.52
2023-05-17T12:56:43.874Z,14.41
2023-05-17T12:59:13.974Z,14.43
2023-05-17T13:01:44.783Z,14.43
2023-05-17T13:04:13.518Z,14.34
2023-05-17T13:06:47.255Z,14.37
2023-05-17T13:09:15.512Z,14.22
2023-05-17T13:11:43.517Z,13.95
2023-05-17T13:14:13.017Z,13.64
2023-05-17T13:16:41.448Z,13.68
2023-05-17T13:19:15.953Z,14.08
2023-05-17T13:21:43.730Z,14.03
2023-05-17T13:24:12.821Z,14.48
2023-05-17T13:26:40.763Z,14.85
2023-05-17T13:29:08.670Z,15.92
2023-05-17T13:31:36.512Z,15.67
2023-05-17T13:34:04.542Z,15.00
2023-05-17T13:36:32.446Z,14.45
2023-05-17T13:39:02.022Z,14.49
2023-05-17T13:41:31.348Z,14.81
2023-05-17T13:43:59.243Z,14.85
2023-05-17T13:46:27.083Z,15.08
2023-05-17T13:48:55.039Z,14.99
2023-05-17T13:51:23.049Z,15.31
2023-05-17T13:53:50.865Z,15.81
2023-05-17T13:56:18.985Z,16.09
2023-05-17T13:58:48.325Z,16.64
2023-05-17T14:01:18.609Z,17.28
2023-05-17T14:03:46.606Z,17.21
2023-05-17T14:06:14.666Z,16.07
2023-05-17T14:08:42.419Z,16.56
2023-05-17T14:11:10.272Z,16.61
2023-05-17T14:13:38.310Z,16.30
2023-05-17T14:16:08.213Z,16.38
2023-05-17T14:18:36.256Z,16.00
2023-05-17T14:21:04.259Z,17.59
2023-05-17T14:23:32.018Z,17.86
2023-05-17T14:25:59.878Z,17.84
2023-05-17T14:28:27.813Z,16.60
2023-05-17T14:30:55.619Z,15.92
2023-05-17T14:33:25.653Z,15.31
2023-05-17T14:35:53.540Z,14.74
2023-05-17T14:38:22.414Z,14.69
2023-05-17T14:40:50.210Z,14.72
2023-05-17T14:43:19.362Z,15.14
2023-05-17T14:45:47.353Z,15.77
2023-05-17T14:48:15.288Z,15.78
2023-05-17T14:50:44.572Z,15.93
2023-05-17T14:53:12.551Z,15.91
2023-05-17T14:55:40.421Z,15.48
2023-05-17T14:58:08.219Z,15.21
2023-05-17T15:00:36.083Z,15.44
2023-05-17T15:03:04.166Z,15.06
2023-05-17T15:05:32.265Z,14.99
2023-05-17T15:08:01.643Z,14.62
2023-05-17T15:10:30.060Z,14.60
2023-05-17T15:12:57.904Z,14.70
2023-05-17T15:15:25.713Z,14.71
2023-05-17T15:17:54.174Z,14.78
2023-05-17T15:20:22.412Z,14.64
2023-05-17T15:22:50.204Z,14.63
2023-05-17T15:25:19.514Z,14.41
2023-05-17T15:27:49.309Z,14.55
2023-05-17T15:30:17.311Z,14.58
2023-05-17T15:32:45.218Z,14.71
2023-05-17T15:35:13.537Z,14.90
2023-05-17T15:37:41.329Z,14.85
2023-05-17T15:40:10.841Z,14.91
2023-05-17T15:42:40.217Z,14.76
2023-05-17T15:45:09.243Z,14.71
2023-05-17T15:47:42.967Z,14.87
2023-05-17T15:50:12.446Z,15.14
2023-05-17T15:52:40.270Z,15.07
2023-05-17T15:55:09.398Z,14.82
2023-05-17T15:57:37.219Z,15.11
2023-05-17T16:00:07.921Z,15.29
2023-05-17T16:02:35.739Z,15.51
2023-05-17T16:05:04.215Z,15.83
2023-05-17T16:07:32.549Z,15.69
2023-05-17T16:10:00.473Z,15.40
2023-05-17T16:12:28.326Z,15.36
2023-05-17T16:14:56.161Z,15.08
2023-05-17T16:17:25.491Z,15.04
2023-05-17T16:19:53.382Z,14.73
2023-05-17T16:22:21.616Z,14.70
2023-05-17T16:24:53.668Z,14.61
2023-05-17T16:27:21.265Z,14.50
2023-05-17T16:29:49.041Z,14.58
2023-05-17T16:32:16.942Z,14.86
2023-05-17T16:34:46.081Z,14.85
2023-05-17T16:37:14.012Z,14.51
2023-05-17T16:39:42.023Z,14.60
2023-05-17T16:42:09.898Z,14.89
2023-05-17T16:44:38.204Z,14.82
2023-05-17T16:47:06.565Z,14.60
2023-05-17T16:49:36.414Z,14.55
2023-05-17T16:52:06.271Z,14.31
2023-05-17T16:54:35.542Z,14.38
2023-05-17T16:57:06.543Z,14.08
2023-05-17T16:59:36.221Z,14.44
2023-05-17T17:02:04.537Z,14.26
2023-05-17T17:04:34.301Z,14.16
2023-05-17T17:07:02.554Z,14.09
2023-05-17T17:09:32.483Z,14.35
2023-05-17T17:12:04.574Z,14.52
2023-05-17T17:14:37.873Z,14.81
2023-05-17T17:17:06.090Z,14.71
2023-05-17T17:19:34.254Z,14.61
2023-05-17T17:22:05.468Z,14.39
2023-05-17T17:24:35.497Z,14.70
2023-05-17T17:27:03.312Z,14.35
2023-05-17T17:29:32.530Z,14.15
2023-05-17T17:32:00.875Z,14.01
2023-05-17T17:34:30.785Z,14.24
2023-05-17T17:36:58.984Z,14.20
2023-05-17T17:39:26.832Z,14.20
2023-05-17T17:41:56.001Z,14.25
2023-05-17T17:44:23.991Z,14.04
2023-05-17T17:46:51.959Z,14.13
2023-05-17T17:49:19.785Z,13.95
2023-05-17T17:51:47.931Z,13.85
2023-05-17T17:54:15.723Z,13.80
2023-05-17T17:56:43.652Z,13.66
2023-05-17T17:59:13.745Z,13.66
2023-05-17T18:01:41.670Z,13.57
2023-05-17T18:04:11.133Z,13.46
2023-05-17T18:06:40.094Z,13.44
2023-05-17T18:09:08.155Z,13.50
2023-05-17T18:11:36.312Z,13.47
2023-05-17T18:14:04.482Z,13.42
2023-05-17T18:16:33.700Z,13.51
2023-05-17T18:19:01.867Z,13.44
2023-05-17T18:21:30.281Z,13.42
2023-05-17T18:23:58.574Z,12.94
2023-05-17T18:26:26.425Z,13.30
2023-05-17T18:28:54.295Z,13.30
2023-05-17T18:31:22.096Z,13.21
2023-05-17T18:33:51.582Z,13.28
2023-05-17T18:36:19.589Z,13.22
2023-05-17T18:38:47.292Z,12.99
2023-05-17T18:41:17.744Z,12.91
2023-05-17T18:43:45.640Z,12.89
2023-05-17T18:46:13.457Z,12.94
2023-05-17T18:48:41.492Z,12.81
2023-05-17T18:51:12.862Z,12.91
2023-05-17T18:53:40.938Z,12.75
2023-05-17T18:56:08.801Z,12.81
2023-05-17T18:58:36.602Z,12.79
2023-05-17T19:01:04.512Z,12.72
2023-05-17T19:03:32.442Z,12.72
2023-05-17T19:06:00.309Z,12.68
2023-05-17T19:08:29.454Z,12.63
2023-05-17T19:10:57.339Z,12.66
2023-05-17T19:13:27.115Z,12.65
2023-05-17T19:15:54.980Z,12.72
2023-05-17T19:18:22.876Z,12.64
2023-05-17T19:20:50.941Z,12.54
2023-05-17T19:23:18.779Z,12.54
2023-05-17T19:25:48.468Z,12.50
2023-05-17T19:28:16.321Z,12.43
2023-05-17T19:30:44.121Z,12.44
2023-05-17T19:33:12.393Z,12.35
2023-05-17T19:35:40.943Z,12.37
2023-05-17T19:38:09.735Z,12.38
2023-05-17T19:40:38.496Z,12.15
2023-05-17T19:43:07.943Z,12.27
2023-05-17T19:45:35.757Z,12.33
2023-05-17T19:48:07.295Z,12.29
2023-05-17T19:50:35.598Z,12.30
2023-05-17T19:53:03.559Z,12.27
2023-05-17T19:55:31.523Z,12.25
2023-05-17T19:57:59.402Z,12.17
2023-05-17T20:00:28.837Z,12.16
2023-05-17T20:02:57.857Z,12.16
2023-05-17T20:05:27.338Z,12.09
2023-05-17T20:07:55.309Z,12.13
2023-05-17T20:10:23.228Z,12.20
2023-05-17T20:12:51.059Z,12.16
2023-05-17T20:15:18.881Z,12.03
2023-05-17T20:17:48.395Z,12.09
2023-05-17T20:20:16.280Z,12.16
2023-05-17T20:22:44.899Z,12.10
2023-05-17T20:25:12.801Z,12.05
2023-05-17T20:27:40.636Z,12.09
2023-05-17T20:30:09.966Z,12.09
2023-05-17T20:32:37.853Z,12.07
2023-05-17T20:35:08.333Z,12.06
2023-05-17T20:37:36.306Z,11.91
2023-05-17T20:40:08.961Z,11.87
2023-05-17T20:42:38.051Z,11.79
2023-05-17T20:45:07.242Z,11.88
2023-05-17T20:47:36.660Z,11.78
2023-05-17T20:50:06.168Z,11.74
2023-05-17T20:52:39.372Z,11.69
2023-05-17T20:55:09.990Z,11.69
2023-05-17T20:57:37.830Z,11.62
2023-05-17T21:00:08.209Z,11.58
2023-05-17T21:02:36.101Z,11.50
2023-05-17T21:05:04.932Z,11.48
2023-05-17T21:07:32.767Z,11.49
2023-05-17T21:10:01.957Z,11.38
2023-05-17T21:12:30.041Z,11.46
2023-05-17T21:15:14.435Z,11.25
2023-05-17T21:17:43.550Z,11.21
2023-05-17T21:20:12.730Z,11.13
2023-05-17T21:22:40.639Z,11.18
2023-05-17T21:25:11.020Z,11.13
2023-05-17T21:27:38.852Z,11.05
2023-05-17T21:30:07.821Z,11.08
2023-05-17T21:32:35.917Z,11.08
2023-05-17T21:35:03.879Z,11.05
2023-05-17T21:37:31.695Z,10.96
2023-05-17T21:39:59.595Z,10.93
2023-05-17T21:42:28.733Z,10.86
2023-05-17T21:44:56.535Z,10.81
2023-05-17T21:47:24.983Z,10.78
2023-05-17T21:49:53.187Z,10.73
2023-05-17T21:52:21.166Z,10.74
2023-05-17T21:54:49.651Z,10.60
2023-05-17T21:57:20.754Z,10.65
2023-05-17T21:59:51.387Z,10.69
2023-05-17T22:02:22.727Z,10.41
2023-05-17T22:04:50.550Z,10.49
2023-05-17T22:07:18.309Z,10.42
2023-05-17T22:09:46.749Z,10.46
2023-05-17T22:12:17.304Z,10.32
2023-05-17T22:14:45.436Z,10.33
2023-05-17T22:17:16.047Z,10.34
2023-05-17T22:19:45.330Z,10.23
2023-05-17T22:22:13.389Z,10.21
2023-05-17T22:24:41.176Z,10.22
2023-05-17T22:27:09.029Z,10.15
2023-05-17T22:29:38.393Z,10.09
2023-05-17T22:32:06.735Z,9.96
2023-05-17T22:34:38.078Z,9.92
2023-05-17T22:37:07.434Z,9.92
2023-05-17T22:39:35.464Z,9.96
2023-05-17T22:42:03.311Z,9.88
2023-05-17T22:44:31.983Z,9.78
2023-05-17T22:47:02.252Z,9.86
2023-05-17T22:49:30.448Z,9.77
2023-05-17T22:52:05.303Z,9.79
2023-05-17T22:54:33.766Z,9.76
2023-05-17T22:57:01.909Z,9.59
2023-05-17T22:59:30.204Z,9.65
2023-05-17T23:01:59.001Z,9.55
2023-05-17T23:04:27.375Z,9.55
2023-05-17T23:06:55.360Z,9.57
2023-05-17T23:09:24.727Z,9.52
2023-05-17T23:11:52.528Z,9.39
2023-05-17T23:14:22.002Z,9.38
2023-05-17T23:16:50.313Z,9.42
2023-05-17T23:19:18.357Z,9.44
2023-05-17T23:21:46.486Z,9.39
2023-05-17T23:24:14.916Z,9.36
2023-05-17T23:26:44.032Z,9.40
2023-05-17T23:29:12.617Z,9.10
2023-05-17T23:31:41.489Z,9.29
2023-05-17T23:34:09.510Z,9.22
2023-05-17T23:36:37.307Z,9.24
2023-05-17T23:39:05.337Z,9.27
2023-05-17T23:41:33.354Z,9.06
2023-05-17T23:44:02.570Z,9.17
2023-05-17T23:46:30.453Z,9.13
2023-05-17T23:48:58.236Z,9.17
2023-05-17T23:51:26.129Z,9.01
2023-05-17T23:53:53.925Z,9.07
2023-05-17T23:56:23.100Z,8.81
2023-05-17T23:58:50.995Z,8.69
